createdAt,value
2018-01-27T00:00:02.247Z,1015.13
2018-01-27T00:01:02.948Z,1015.14
2018-01-27T00:02:03.580Z,1015.14
2018-01-27T00:03:02.301Z,1015.17
2018-01-27T00:04:01.629Z,1015.18
2018-01-27T00:05:01.694Z,1015.17
2018-01-27T00:06:01.618Z,1015.18
2018-01-27T00:07:02.440Z,1015.16
2018-01-27T00:08:02.352Z,1015.17
2018-01-27T00:09:01.780Z,1015.17
2018-01-27T00:10:01.749Z,1015.15
2018-01-27T00:11:01.704Z,1015.17
2018-01-27T00:12:01.736Z,1015.2
2018-01-27T00:13:01.627Z,1015.15
2018-01-27T00:14:01.665Z,1015.23
2018-01-27T00:15:01.657Z,1015.18
2018-01-27T00:16:01.713Z,1015.19
2018-01-27T00:17:01.656Z,1015.22
2018-01-27T00:18:01.707Z,1015.26
2018-01-27T00:19:01.764Z,1015.24
2018-01-27T00:20:02.072Z,1015.24
2018-01-27T00:21:01.753Z,1015.22
2018-01-27T00:22:01.877Z,1015.26
2018-01-27T00:23:01.931Z,1015.29
2018-01-27T00:24:01.609Z,1015.31
2018-01-27T00:25:01.845Z,1015.29
2018-01-27T00:26:01.848Z,1015.3
2018-01-27T00:27:01.768Z,1015.32
2018-01-27T00:28:01.893Z,1015.35
2018-01-27T00:29:02.133Z,1015.38
2018-01-27T00:30:02.267Z,1015.42
2018-01-27T00:31:01.974Z,1015.46
2018-01-27T00:32:02.543Z,1015.47
2018-01-27T00:33:01.811Z,1015.49
2018-01-27T00:34:01.733Z,1015.45
2018-01-27T00:35:02.489Z,1015.49
2018-01-27T00:36:01.729Z,1015.51
2018-01-27T00:37:01.788Z,1015.49
2018-01-27T00:38:01.661Z,1015.41
2018-01-27T00:39:02.348Z,1015.44
2018-01-27T00:40:01.778Z,1015.41
2018-01-27T00:41:01.816Z,1015.41
2018-01-27T00:42:01.682Z,1015.4
2018-01-27T00:43:01.987Z,1015.42
2018-01-27T00:44:02.662Z,1015.36
2018-01-27T00:45:01.774Z,1015.37
2018-01-27T00:46:02.517Z,1015.38
2018-01-27T00:47:02.342Z,1015.39
2018-01-27T00:48:02.423Z,1015.4
2018-01-27T00:49:02.320Z,1015.39
2018-01-27T00:50:03.430Z,1015.44
2018-01-27T00:51:01.902Z,1015.45
2018-01-27T00:52:01.986Z,1015.48
2018-01-27T00:53:01.681Z,1015.47
2018-01-27T00:54:01.672Z,1015.46
2018-01-27T00:55:01.754Z,1015.46
2018-01-27T00:56:01.755Z,1015.44
2018-01-27T00:57:01.708Z,1015.47
2018-01-27T00:58:01.944Z,1015.47
2018-01-27T00:59:01.677Z,1015.49
2018-01-27T01:00:01.892Z,1015.53
2018-01-27T01:01:01.784Z,1015.57
2018-01-27T01:02:02.755Z,1015.6
2018-01-27T01:03:01.881Z,1015.64
2018-01-27T01:04:01.980Z,1015.64
2018-01-27T01:05:01.762Z,1015.62
2018-01-27T01:06:01.881Z,1015.63
2018-01-27T01:07:01.966Z,1015.63
2018-01-27T01:08:01.801Z,1015.68
2018-01-27T01:09:01.791Z,1015.64
2018-01-27T01:10:02.369Z,1015.66
2018-01-27T01:11:01.659Z,1015.67
2018-01-27T01:12:02.649Z,1015.68
2018-01-27T01:13:02.665Z,1015.66
2018-01-27T01:14:01.826Z,1015.66
2018-01-27T01:15:02.497Z,1015.64
2018-01-27T01:16:01.756Z,1015.67
2018-01-27T01:17:01.836Z,1015.68
2018-01-27T01:18:01.670Z,1015.69
2018-01-27T01:19:01.747Z,1015.68
2018-01-27T01:20:02.400Z,1015.7
2018-01-27T01:21:01.791Z,1015.7
2018-01-27T01:22:01.891Z,1015.68
2018-01-27T01:23:01.812Z,1015.71
2018-01-27T01:24:01.895Z,1015.73
2018-01-27T01:25:01.965Z,1015.69
2018-01-27T01:26:01.808Z,1015.68
2018-01-27T01:27:01.791Z,1015.72
2018-01-27T01:28:02.570Z,1015.72
2018-01-27T01:29:01.876Z,1015.72
2018-01-27T01:30:01.907Z,1015.75
2018-01-27T01:31:01.717Z,1015.78
2018-01-27T01:32:01.850Z,1015.82
2018-01-27T01:33:01.878Z,1015.84
2018-01-27T01:34:01.786Z,1015.88
2018-01-27T01:35:01.843Z,1015.86
2018-01-27T01:36:02.704Z,1015.9
2018-01-27T01:37:02.048Z,1015.95
2018-01-27T01:38:02.311Z,1015.96
2018-01-27T01:39:01.667Z,1015.98
2018-01-27T01:40:01.776Z,1015.99
2018-01-27T01:41:01.838Z,1015.98
2018-01-27T01:42:01.947Z,1015.96
2018-01-27T01:43:02.567Z,1015.98
2018-01-27T01:44:02.648Z,1016.03
2018-01-27T01:45:01.936Z,1016.03
2018-01-27T01:46:01.962Z,1016.04
2018-01-27T01:47:02.173Z,1016.06
2018-01-27T01:48:01.790Z,1016.04
2018-01-27T01:49:01.867Z,1016.06
2018-01-27T01:50:01.950Z,1016.06
2018-01-27T01:51:02.461Z,1016.1
2018-01-27T01:52:01.989Z,1016.06
2018-01-27T01:53:01.829Z,1016.1
2018-01-27T01:54:03.038Z,1016.14
2018-01-27T01:55:01.853Z,1016.13
2018-01-27T01:56:01.725Z,1016.12
2018-01-27T01:57:01.875Z,1016.13
2018-01-27T01:58:01.793Z,1016.16
2018-01-27T01:59:01.820Z,1016.13
2018-01-27T02:00:01.915Z,1016.13
2018-01-27T02:01:01.775Z,1016.16
2018-01-27T02:02:01.866Z,1016.14
2018-01-27T02:03:02.030Z,1016.17
2018-01-27T02:04:01.899Z,1016.17
2018-01-27T02:05:01.860Z,1016.17
2018-01-27T02:06:01.834Z,1016.21
2018-01-27T02:07:02.043Z,1016.25
2018-01-27T02:08:01.781Z,1016.22
2018-01-27T02:09:02.539Z,1016.25
2018-01-27T02:10:01.783Z,1016.24
2018-01-27T02:11:01.759Z,1016.28
2018-01-27T02:12:01.942Z,1016.25
2018-01-27T02:13:01.791Z,1016.31
2018-01-27T02:14:02.356Z,1016.31
2018-01-27T02:15:01.909Z,1016.31
2018-01-27T02:16:02.367Z,1016.29
2018-01-27T02:17:01.867Z,1016.3
2018-01-27T02:18:01.988Z,1016.34
2018-01-27T02:19:01.906Z,1016.38
2018-01-27T02:20:02.048Z,1016.37
2018-01-27T02:21:01.834Z,1016.34
2018-01-27T02:22:01.937Z,1016.36
2018-01-27T02:23:02.058Z,1016.36
2018-01-27T02:24:02.012Z,1016.35
2018-01-27T02:25:01.917Z,1016.37
2018-01-27T02:26:02.202Z,1016.36
2018-01-27T02:27:01.860Z,1016.35
2018-01-27T02:28:01.897Z,1016.37
2018-01-27T02:29:01.861Z,1016.35
2018-01-27T02:30:01.892Z,1016.32
2018-01-27T02:31:01.964Z,1016.39
2018-01-27T02:32:02.036Z,1016.37
2018-01-27T02:33:01.830Z,1016.39
2018-01-27T02:34:01.844Z,1016.39
2018-01-27T02:35:01.906Z,1016.34
2018-01-27T02:36:02.040Z,1016.35
2018-01-27T02:37:02.024Z,1016.39
2018-01-27T02:38:01.928Z,1016.35
2018-01-27T02:39:01.876Z,1016.39
2018-01-27T02:40:02.005Z,1016.37
2018-01-27T02:41:01.949Z,1016.4
2018-01-27T02:42:01.852Z,1016.41
2018-01-27T02:43:01.988Z,1016.41
2018-01-27T02:44:02.612Z,1016.45
2018-01-27T02:45:01.971Z,1016.42
2018-01-27T02:46:01.912Z,1016.45
2018-01-27T02:47:01.837Z,1016.44
2018-01-27T02:48:01.961Z,1016.44
2018-01-27T02:49:01.958Z,1016.43
2018-01-27T02:50:01.963Z,1016.4
2018-01-27T02:51:02.702Z,1016.41
2018-01-27T02:52:01.960Z,1016.4
2018-01-27T02:53:01.969Z,1016.43
2018-01-27T02:54:01.925Z,1016.39
2018-01-27T02:55:01.928Z,1016.38
2018-01-27T02:56:01.912Z,1016.4
2018-01-27T02:57:02.835Z,1016.41
2018-01-27T02:58:01.949Z,1016.36
2018-01-27T02:59:02.048Z,1016.42
2018-01-27T03:00:01.934Z,1016.4
2018-01-27T03:01:02.039Z,1016.41
2018-01-27T03:02:01.984Z,1016.46
2018-01-27T03:03:02.704Z,1016.47
2018-01-27T03:04:02.740Z,1016.47
2018-01-27T03:05:02.430Z,1016.48
2018-01-27T03:06:01.997Z,1016.5
2018-01-27T03:07:01.884Z,1016.53
2018-01-27T03:08:01.879Z,1016.51
2018-01-27T03:09:01.796Z,1016.49
2018-01-27T03:10:01.819Z,1016.51
2018-01-27T03:11:01.875Z,1016.51
2018-01-27T03:12:01.817Z,1016.54
2018-01-27T03:13:02.018Z,1016.53
2018-01-27T03:14:02.008Z,1016.59
2018-01-27T03:15:02.145Z,1016.57
2018-01-27T03:16:01.914Z,1016.57
2018-01-27T03:17:02.051Z,1016.6
2018-01-27T03:18:01.871Z,1016.57
2018-01-27T03:19:01.994Z,1016.6
2018-01-27T03:20:01.847Z,1016.55
2018-01-27T03:21:01.894Z,1016.58
2018-01-27T03:22:02.027Z,1016.61
2018-01-27T03:23:02.080Z,1016.63
2018-01-27T03:24:02.111Z,1016.64
2018-01-27T03:25:01.876Z,1016.66
2018-01-27T03:26:02.682Z,1016.66
2018-01-27T03:27:02.628Z,1016.71
2018-01-27T03:28:02.046Z,1016.7
2018-01-27T03:29:02.035Z,1016.73
2018-01-27T03:30:02.017Z,1016.73
2018-01-27T03:31:02.009Z,1016.78
2018-01-27T03:32:02.720Z,1016.78
2018-01-27T03:33:01.952Z,1016.83
2018-01-27T03:34:02.038Z,1016.81
2018-01-27T03:35:02.015Z,1016.82
2018-01-27T03:36:02.009Z,1016.87
2018-01-27T03:37:01.926Z,1016.87
2018-01-27T03:38:02.546Z,1016.87
2018-01-27T03:39:02.223Z,1016.85
2018-01-27T03:40:02.000Z,1016.84
2018-01-27T03:41:02.051Z,1016.83
2018-01-27T03:42:02.160Z,1016.86
2018-01-27T03:43:02.202Z,1016.84
2018-01-27T03:44:02.906Z,1016.94
2018-01-27T03:45:02.179Z,1016.99
2018-01-27T03:46:02.066Z,1017.01
2018-01-27T03:47:02.075Z,1017.01
2018-01-27T03:48:02.103Z,1017
2018-01-27T03:49:02.019Z,1017.03
2018-01-27T03:50:02.217Z,1017.04
2018-01-27T03:51:02.012Z,1017.09
2018-01-27T03:52:03.321Z,1017.09
2018-01-27T03:53:02.257Z,1017.11
2018-01-27T03:54:02.036Z,1017.12
2018-01-27T03:55:02.438Z,1017.16
2018-01-27T03:56:03.025Z,1017.19
2018-01-27T03:57:03.135Z,1017.22
2018-01-27T03:58:02.980Z,1017.17
2018-01-27T03:59:02.020Z,1017.24
2018-01-27T04:00:02.422Z,1017.25
2018-01-27T04:01:02.892Z,1017.22
2018-01-27T04:02:02.129Z,1017.29
2018-01-27T04:03:03.228Z,1017.32
2018-01-27T04:04:02.109Z,1017.31
2018-01-27T04:06:02.084Z,1017.38
2018-01-27T04:07:03.996Z,1017.38
2018-01-27T04:08:05.778Z,1017.4
2018-01-27T04:09:01.982Z,1017.42
2018-01-27T04:10:02.009Z,1017.43
2018-01-27T04:11:01.986Z,1017.41
2018-01-27T04:12:02.934Z,1017.48
2018-01-27T04:13:03.561Z,1017.49
2018-01-27T04:14:02.742Z,1017.44
2018-01-27T04:15:02.684Z,1017.45
2018-01-27T04:16:02.140Z,1017.49
2018-01-27T04:17:02.310Z,1017.51
2018-01-27T04:18:01.904Z,1017.5
2018-01-27T04:19:02.106Z,1017.52
2018-01-27T04:20:02.852Z,1017.52
2018-01-27T04:21:03.564Z,1017.55
2018-01-27T04:22:03.019Z,1017.56
2018-01-27T04:23:02.199Z,1017.61
2018-01-27T04:24:02.328Z,1017.55
2018-01-27T04:25:02.158Z,1017.57
2018-01-27T04:26:02.340Z,1017.59
2018-01-27T04:27:02.803Z,1017.58
2018-01-27T04:28:02.349Z,1017.59
2018-01-27T04:29:02.253Z,1017.6
2018-01-27T04:30:02.049Z,1017.61
2018-01-27T04:31:02.232Z,1017.65
2018-01-27T04:32:02.345Z,1017.64
2018-01-27T04:33:02.810Z,1017.66
2018-01-27T04:34:02.079Z,1017.67
2018-01-27T04:35:02.301Z,1017.68
2018-01-27T04:36:01.982Z,1017.68
2018-01-27T04:37:02.727Z,1017.73
2018-01-27T04:38:02.253Z,1017.73
2018-01-27T04:39:01.970Z,1017.77
2018-01-27T04:40:02.451Z,1017.71
2018-01-27T04:41:02.028Z,1017.75
2018-01-27T04:42:01.976Z,1017.74
2018-01-27T04:43:02.165Z,1017.74
2018-01-27T04:44:02.963Z,1017.75
2018-01-27T04:45:02.194Z,1017.81
2018-01-27T04:46:01.994Z,1017.78
2018-01-27T04:47:02.361Z,1017.78
2018-01-27T04:48:02.349Z,1017.74
2018-01-27T04:49:02.013Z,1017.76
2018-01-27T04:50:02.695Z,1017.77
2018-01-27T04:51:03.554Z,1017.78
2018-01-27T04:52:03.060Z,1017.74
2018-01-27T04:53:02.307Z,1017.77
2018-01-27T04:54:02.974Z,1017.78
2018-01-27T04:55:02.327Z,1017.75
2018-01-27T04:56:03.566Z,1017.77
2018-01-27T04:57:02.490Z,1017.78
2018-01-27T04:58:02.925Z,1017.74
2018-01-27T04:59:04.156Z,1017.75
2018-01-27T05:00:02.328Z,1017.77
2018-01-27T05:01:04.617Z,1017.76
2018-01-27T05:02:04.287Z,1017.81
2018-01-27T05:03:02.973Z,1017.78
2018-01-27T05:04:03.010Z,1017.81
2018-01-27T05:05:02.382Z,1017.84
2018-01-27T05:06:02.502Z,1017.81
2018-01-27T05:07:02.268Z,1017.82
2018-01-27T05:08:03.669Z,1017.84
2018-01-27T05:09:07.892Z,1017.84
2018-01-27T05:10:03.186Z,1017.84
2018-01-27T05:11:02.205Z,1017.89
2018-01-27T05:12:02.177Z,1017.9
2018-01-27T05:13:04.410Z,1017.9
2018-01-27T05:14:02.859Z,1017.93
2018-01-27T05:15:04.382Z,1017.98
2018-01-27T05:16:02.953Z,1017.96
2018-01-27T05:17:03.137Z,1017.98
2018-01-27T05:18:02.451Z,1018
2018-01-27T05:19:03.543Z,1018.01
2018-01-27T05:20:02.678Z,1018.02
2018-01-27T05:21:03.311Z,1018.06
2018-01-27T05:22:02.436Z,1018.04
2018-01-27T05:23:03.162Z,1018.06
2018-01-27T05:24:02.293Z,1018.03
2018-01-27T05:25:06.564Z,1018.01
2018-01-27T05:26:04.210Z,1018.04
2018-01-27T05:27:02.551Z,1018.07
2018-01-27T05:28:03.773Z,1018.02
2018-01-27T05:29:03.032Z,1018.06
2018-01-27T05:30:03.592Z,1018.07
2018-01-27T05:31:02.488Z,1018.1
2018-01-27T05:32:04.543Z,1018.1
2018-01-27T05:33:03.183Z,1018.15
2018-01-27T05:34:04.371Z,1018.14
2018-01-27T05:35:02.511Z,1018.17
2018-01-27T05:36:02.367Z,1018.15
2018-01-27T05:37:02.652Z,1018.19
2018-01-27T05:38:02.414Z,1018.18
2018-01-27T05:39:02.603Z,1018.25
2018-01-27T05:40:03.773Z,1018.26
2018-01-27T05:41:02.512Z,1018.25
2018-01-27T05:42:02.768Z,1018.22
2018-01-27T05:43:02.490Z,1018.3
2018-01-27T05:44:02.496Z,1018.33
2018-01-27T05:45:04.424Z,1018.35
2018-01-27T05:46:02.657Z,1018.41
2018-01-27T05:47:02.466Z,1018.4
2018-01-27T05:48:02.502Z,1018.44
2018-01-27T05:49:03.095Z,1018.44
2018-01-27T05:50:02.344Z,1018.45
2018-01-27T05:51:02.901Z,1018.46
2018-01-27T05:52:02.348Z,1018.47
2018-01-27T05:53:02.353Z,1018.51
2018-01-27T05:54:02.454Z,1018.53
2018-01-27T05:55:02.394Z,1018.53
2018-01-27T05:56:02.315Z,1018.53
2018-01-27T05:59:02.474Z,1018.58
2018-01-27T06:00:02.282Z,1018.59
2018-01-27T06:01:02.382Z,1018.56
2018-01-27T06:02:02.348Z,1018.57
2018-01-27T06:03:02.321Z,1018.57
2018-01-27T06:04:02.359Z,1018.6
2018-01-27T06:05:02.293Z,1018.55
2018-01-27T06:06:02.427Z,1018.59
2018-01-27T06:07:02.345Z,1018.6
2018-01-27T06:08:02.356Z,1018.62
2018-01-27T06:09:02.348Z,1018.66
2018-01-27T06:10:02.277Z,1018.72
2018-01-27T06:11:02.388Z,1018.76
2018-01-27T06:12:02.344Z,1018.79
2018-01-27T06:13:02.368Z,1018.83
2018-01-27T06:14:02.403Z,1018.9
2018-01-27T06:15:02.280Z,1018.84
2018-01-27T06:16:02.290Z,1018.89
2018-01-27T06:17:02.349Z,1018.92
2018-01-27T06:18:02.343Z,1018.92
2018-01-27T06:19:02.383Z,1018.93
2018-01-27T06:20:02.311Z,1018.89
2018-01-27T06:21:02.325Z,1018.89
2018-01-27T06:22:02.464Z,1018.87
2018-01-27T06:23:02.430Z,1018.9
2018-01-27T06:24:02.448Z,1018.89
2018-01-27T06:25:02.436Z,1018.89
2018-01-27T06:26:02.361Z,1018.93
2018-01-27T06:27:02.369Z,1018.92
2018-01-27T06:28:02.427Z,1018.95
2018-01-27T06:29:02.421Z,1018.95
2018-01-27T06:30:02.428Z,1018.99
2018-01-27T06:31:02.408Z,1018.97
2018-01-27T06:32:02.391Z,1018.99
2018-01-27T06:33:02.408Z,1019
2018-01-27T06:34:02.532Z,1019.01
2018-01-27T06:35:02.407Z,1019.03
2018-01-27T06:36:02.456Z,1019
2018-01-27T06:37:02.450Z,1019.08
2018-01-27T06:38:02.454Z,1019.07
2018-01-27T06:39:02.362Z,1019.08
2018-01-27T06:40:03.815Z,1019.12
2018-01-27T06:41:02.423Z,1019.14
2018-01-27T06:42:02.476Z,1019.17
2018-01-27T06:43:02.557Z,1019.18
2018-01-27T06:44:02.395Z,1019.15
2018-01-27T06:45:02.471Z,1019.18
2018-01-27T06:46:02.491Z,1019.17
2018-01-27T06:47:02.478Z,1019.17
2018-01-27T06:48:02.423Z,1019.17
2018-01-27T06:49:02.441Z,1019.2
2018-01-27T06:50:02.883Z,1019.24
2018-01-27T06:51:02.479Z,1019.25
2018-01-27T06:52:02.671Z,1019.23
2018-01-27T06:53:01.673Z,1019.27
2018-01-27T06:54:01.694Z,1019.28
2018-01-27T06:55:01.598Z,1019.28
2018-01-27T06:56:01.655Z,1019.3
2018-01-27T06:57:01.779Z,1019.33
2018-01-27T06:58:01.700Z,1019.32
2018-01-27T06:59:01.606Z,1019.33
2018-01-27T07:00:01.651Z,1019.37
2018-01-27T07:01:01.631Z,1019.38
2018-01-27T07:02:01.781Z,1019.38
2018-01-27T07:03:01.609Z,1019.41
2018-01-27T07:04:01.755Z,1019.43
2018-01-27T07:05:01.619Z,1019.42
2018-01-27T07:06:01.740Z,1019.43
2018-01-27T07:07:01.746Z,1019.49
2018-01-27T07:08:01.641Z,1019.49
2018-01-27T07:09:01.661Z,1019.51
2018-01-27T07:10:01.691Z,1019.56
2018-01-27T07:11:01.629Z,1019.53
2018-01-27T07:12:01.682Z,1019.54
2018-01-27T07:13:01.725Z,1019.58
2018-01-27T07:14:01.692Z,1019.56
2018-01-27T07:15:01.724Z,1019.55
2018-01-27T07:16:01.743Z,1019.53
2018-01-27T07:17:01.647Z,1019.57
2018-01-27T07:18:01.691Z,1019.55
2018-01-27T07:19:01.743Z,1019.55
2018-01-27T07:20:01.937Z,1019.55
2018-01-27T07:21:01.655Z,1019.57
2018-01-27T07:22:01.618Z,1019.62
2018-01-27T07:23:01.769Z,1019.65
2018-01-27T07:24:01.708Z,1019.66
2018-01-27T07:25:01.898Z,1019.65
2018-01-27T07:26:01.706Z,1019.69
2018-01-27T07:27:01.695Z,1019.7
2018-01-27T07:28:01.738Z,1019.76
2018-01-27T07:29:01.762Z,1019.74
2018-01-27T07:30:01.771Z,1019.72
2018-01-27T07:31:01.974Z,1019.73
2018-01-27T07:32:01.743Z,1019.78
2018-01-27T07:33:01.693Z,1019.8
2018-01-27T07:34:01.724Z,1019.78
2018-01-27T07:35:01.800Z,1019.83
2018-01-27T07:36:01.727Z,1019.83
2018-01-27T07:37:01.722Z,1019.84
2018-01-27T07:38:01.898Z,1019.82
2018-01-27T07:39:01.700Z,1019.81
2018-01-27T07:40:02.472Z,1019.91
2018-01-27T07:41:01.773Z,1019.91
2018-01-27T07:42:01.678Z,1019.96
2018-01-27T07:43:01.797Z,1020.01
2018-01-27T07:44:01.738Z,1020.03
2018-01-27T07:45:01.870Z,1020.05
2018-01-27T07:46:01.714Z,1020.06
2018-01-27T07:47:01.680Z,1020.07
2018-01-27T07:48:01.767Z,1020.05
2018-01-27T07:49:01.737Z,1020.06
2018-01-27T07:50:01.753Z,1020.02
2018-01-27T07:51:01.693Z,1020.04
2018-01-27T07:52:01.706Z,1020.01
2018-01-27T07:53:01.865Z,1020.08
2018-01-27T07:54:01.721Z,1020.06
2018-01-27T07:55:01.819Z,1020.15
2018-01-27T07:56:01.803Z,1020.11
2018-01-27T07:57:01.768Z,1020.18
2018-01-27T07:58:01.887Z,1020.19
2018-01-27T07:59:01.791Z,1020.18
2018-01-27T08:00:01.761Z,1020.22
2018-01-27T08:01:01.806Z,1020.26
2018-01-27T08:02:01.836Z,1020.21
2018-01-27T08:03:01.807Z,1020.21
2018-01-27T08:04:01.749Z,1020.2
2018-01-27T08:05:01.906Z,1020.19
2018-01-27T08:06:01.771Z,1020.2
2018-01-27T08:07:01.805Z,1020.22
2018-01-27T08:08:01.776Z,1020.25
2018-01-27T08:09:01.780Z,1020.27
2018-01-27T08:10:01.788Z,1020.28
2018-01-27T08:11:01.737Z,1020.27
2018-01-27T08:12:01.940Z,1020.28
2018-01-27T08:13:01.782Z,1020.28
2018-01-27T08:14:01.800Z,1020.28
2018-01-27T08:15:01.728Z,1020.27
2018-01-27T08:16:01.814Z,1020.3
2018-01-27T08:17:01.849Z,1020.32
2018-01-27T08:18:01.721Z,1020.32
2018-01-27T08:19:01.833Z,1020.35
2018-01-27T08:20:01.780Z,1020.38
2018-01-27T08:21:02.377Z,1020.4
2018-01-27T08:22:01.855Z,1020.41
2018-01-27T08:23:01.883Z,1020.39
2018-01-27T08:24:01.898Z,1020.39
2018-01-27T08:25:01.919Z,1020.41
2018-01-27T08:26:01.793Z,1020.38
2018-01-27T08:27:01.837Z,1020.46
2018-01-27T08:28:01.954Z,1020.46
2018-01-27T08:29:01.830Z,1020.46
2018-01-27T08:30:01.868Z,1020.49
2018-01-27T08:31:01.876Z,1020.54
2018-01-27T08:32:01.925Z,1020.51
2018-01-27T08:33:01.868Z,1020.53
2018-01-27T08:36:15.979Z,1020.56
2018-01-27T08:37:01.829Z,1020.57
2018-01-27T08:38:01.821Z,1020.54
2018-01-27T08:39:01.890Z,1020.54
2018-01-27T08:40:01.837Z,1020.57
2018-01-27T08:41:01.938Z,1020.56
2018-01-27T08:42:01.835Z,1020.59
2018-01-27T08:43:01.871Z,1020.61
2018-01-27T08:44:01.847Z,1020.6
2018-01-27T08:45:01.816Z,1020.63
2018-01-27T08:46:01.921Z,1020.6
2018-01-27T08:47:01.879Z,1020.64
2018-01-27T08:48:01.936Z,1020.61
2018-01-27T08:49:01.869Z,1020.64
2018-01-27T08:50:01.876Z,1020.59
2018-01-27T08:51:01.869Z,1020.59
2018-01-27T08:52:01.889Z,1020.57
2018-01-27T08:53:01.890Z,1020.58
2018-01-27T08:54:02.017Z,1020.57
2018-01-27T08:55:01.908Z,1020.59
2018-01-27T08:56:01.897Z,1020.61
2018-01-27T08:57:01.891Z,1020.59
2018-01-27T08:58:02.572Z,1020.63
2018-01-27T08:59:01.903Z,1020.62
2018-01-27T09:00:01.853Z,1020.67
2018-01-27T09:01:01.887Z,1020.69
2018-01-27T09:02:01.888Z,1020.71
2018-01-27T09:03:01.886Z,1020.77
2018-01-27T09:04:01.959Z,1020.76
2018-01-27T09:05:01.896Z,1020.79
2018-01-27T09:06:26.911Z,1020.85
2018-01-27T09:07:01.878Z,1020.86
2018-01-27T09:08:01.883Z,1020.9
2018-01-27T09:09:02.021Z,1020.91
2018-01-27T09:10:18.362Z,1020.93
2018-01-27T09:11:18.161Z,1020.93
2018-01-27T09:12:17.833Z,1020.97
2018-01-27T09:13:18.180Z,1020.94
2018-01-27T09:14:18.137Z,1020.98
2018-01-27T09:15:18.141Z,1021.03
2018-01-27T09:16:18.224Z,1021
2018-01-27T09:17:18.151Z,1021.02
2018-01-27T09:18:18.235Z,1021.04
2018-01-27T09:19:18.216Z,1021.03
2018-01-27T09:20:18.012Z,1021.08
2018-01-27T09:21:18.031Z,1021.02
2018-01-27T09:22:18.563Z,1021.07
2018-01-27T09:23:18.106Z,1021.05
2018-01-27T09:24:17.048Z,1021.04
2018-01-27T09:25:17.090Z,1021.08
2018-01-27T09:26:17.035Z,1021.08
2018-01-27T09:27:17.127Z,1021.11
2018-01-27T09:28:17.126Z,1021.09
2018-01-27T09:29:16.982Z,1021.12
2018-01-27T09:30:17.397Z,1021.15
2018-01-27T09:31:17.085Z,1021.17
2018-01-27T09:32:17.038Z,1021.22
2018-01-27T09:33:17.022Z,1021.28
2018-01-27T09:34:16.998Z,1021.26
2018-01-27T09:35:17.111Z,1021.34
2018-01-27T09:36:17.062Z,1021.35
2018-01-27T09:37:17.052Z,1021.36
2018-01-27T09:38:17.060Z,1021.39
2018-01-27T09:39:17.039Z,1021.39
2018-01-27T09:40:17.142Z,1021.4
2018-01-27T09:41:17.080Z,1021.38
2018-01-27T09:42:17.109Z,1021.45
2018-01-27T09:43:17.093Z,1021.44
2018-01-27T09:44:17.084Z,1021.43
2018-01-27T09:45:17.069Z,1021.49
2018-01-27T09:46:17.022Z,1021.55
2018-01-27T09:47:17.123Z,1021.53
2018-01-27T09:48:18.136Z,1021.52
2018-01-27T09:49:17.109Z,1021.54
2018-01-27T09:50:17.141Z,1021.52
2018-01-27T09:51:17.107Z,1021.48
2018-01-27T09:52:17.277Z,1021.5
2018-01-27T09:53:17.035Z,1021.52
2018-01-27T09:54:17.068Z,1021.55
2018-01-27T09:55:17.078Z,1021.58
2018-01-27T09:56:17.182Z,1021.59
2018-01-27T09:57:47.932Z,1021.59
2018-01-27T09:58:19.452Z,1021.57
2018-01-27T09:59:20.262Z,1021.57
2018-01-27T10:00:17.361Z,1021.52
2018-01-27T10:01:17.890Z,1021.51
2018-01-27T10:02:17.338Z,1021.5
2018-01-27T10:03:17.170Z,1021.51
2018-01-27T10:04:17.326Z,1021.51
2018-01-27T10:05:19.602Z,1021.51
2018-01-27T10:06:18.299Z,1021.52
2018-01-27T10:07:17.142Z,1021.56
2018-01-27T10:08:17.190Z,1021.57
2018-01-27T10:09:17.848Z,1021.56
2018-01-27T10:10:21.324Z,1021.55
2018-01-27T10:11:24.172Z,1021.59
2018-01-27T10:12:21.687Z,1021.61
2018-01-27T10:13:17.304Z,1021.61
2018-01-27T10:14:16.937Z,1021.61
2018-01-27T10:15:17.065Z,1021.61
2018-01-27T10:16:19.901Z,1021.63
2018-01-27T10:17:16.856Z,1021.63
2018-01-27T10:18:16.748Z,1021.65
2018-01-27T10:19:45.616Z,1021.7
2018-01-27T10:20:16.925Z,1021.74
2018-01-27T10:21:17.863Z,1021.75
2018-01-27T10:22:17.058Z,1021.77
2018-01-27T10:23:16.863Z,1021.75
2018-01-27T10:24:16.808Z,1021.76
2018-01-27T10:25:17.865Z,1021.79
2018-01-27T10:26:22.268Z,1021.83
2018-01-27T10:27:17.461Z,1021.87
2018-01-27T10:28:17.526Z,1021.9
2018-01-27T10:29:17.468Z,1021.91
2018-01-27T10:30:18.458Z,1021.96
2018-01-27T10:31:16.817Z,1021.98
2018-01-27T10:32:16.776Z,1021.98
2018-01-27T10:33:16.717Z,1022.01
2018-01-27T10:34:17.986Z,1022.06
2018-01-27T10:35:18.280Z,1022.05
2018-01-27T10:36:20.341Z,1022.08
2018-01-27T10:37:17.738Z,1022.04
2018-01-27T10:38:17.559Z,1022.1
2018-01-27T10:39:16.786Z,1022.05
2018-01-27T10:40:16.681Z,1022.09
2018-01-27T10:41:17.776Z,1022.11
2018-01-27T10:42:16.974Z,1022.11
2018-01-27T10:43:17.409Z,1022.14
2018-01-27T10:44:17.637Z,1022.19
2018-01-27T10:45:17.506Z,1022.2
2018-01-27T10:46:16.761Z,1022.2
2018-01-27T10:47:18.146Z,1022.2
2018-01-27T10:48:16.997Z,1022.21
2018-01-27T10:49:17.123Z,1022.24
2018-01-27T10:50:18.688Z,1022.26
2018-01-27T10:51:16.975Z,1022.26
2018-01-27T10:52:16.867Z,1022.24
2018-01-27T10:53:17.326Z,1022.22
2018-01-27T10:54:17.778Z,1022.21
2018-01-27T10:55:16.810Z,1022.18
2018-01-27T10:56:16.716Z,1022.17
2018-01-27T10:57:17.829Z,1022.18
2018-01-27T10:58:18.599Z,1022.15
2018-01-27T10:59:20.965Z,1022.17
2018-01-27T11:00:16.864Z,1022.18
2018-01-27T11:01:16.865Z,1022.15
2018-01-27T11:02:16.902Z,1022.16
2018-01-27T11:03:16.844Z,1022.22
2018-01-27T11:04:17.686Z,1022.18
2018-01-27T11:05:17.636Z,1022.22
2018-01-27T11:06:16.797Z,1022.21
2018-01-27T11:07:17.275Z,1022.17
2018-01-27T11:08:18.885Z,1022.16
2018-01-27T11:09:16.991Z,1022.12
2018-01-27T11:10:17.447Z,1022.1
2018-01-27T11:11:18.315Z,1022.11
2018-01-27T11:12:16.967Z,1022.09
2018-01-27T11:13:17.585Z,1022.12
2018-01-27T11:14:17.565Z,1022.13
2018-01-27T11:15:17.659Z,1022.07
2018-01-27T11:16:17.712Z,1022.1
2018-01-27T11:17:17.597Z,1022.05
2018-01-27T11:18:18.091Z,1022.02
2018-01-27T11:19:17.619Z,1022.01
2018-01-27T11:20:17.468Z,1021.94
2018-01-27T11:21:17.012Z,1021.95
2018-01-27T11:22:16.828Z,1021.88
2018-01-27T11:23:17.722Z,1021.92
2018-01-27T11:24:17.039Z,1021.96
2018-01-27T11:25:16.915Z,1021.94
2018-01-27T11:26:17.734Z,1021.92
2018-01-27T11:27:17.631Z,1021.94
2018-01-27T11:28:18.392Z,1021.89
2018-01-27T11:29:22.279Z,1021.87
2018-01-27T11:30:17.640Z,1021.86
2018-01-27T11:31:17.657Z,1021.88
2018-01-27T11:32:17.382Z,1021.85
2018-01-27T11:33:16.904Z,1021.82
2018-01-27T11:34:17.814Z,1021.76
2018-01-27T11:35:17.379Z,1021.72
2018-01-27T11:36:17.564Z,1021.72
2018-01-27T11:37:19.030Z,1021.67
2018-01-27T11:38:16.825Z,1021.65
2018-01-27T11:39:16.782Z,1021.64
2018-01-27T11:40:16.989Z,1021.62
2018-01-27T11:41:16.822Z,1021.6
2018-01-27T11:42:17.022Z,1021.61
2018-01-27T11:43:17.232Z,1021.63
2018-01-27T11:44:17.038Z,1021.62
2018-01-27T11:45:17.012Z,1021.6
2018-01-27T11:46:17.099Z,1021.55
2018-01-27T11:47:16.996Z,1021.53
2018-01-27T11:48:16.956Z,1021.48
2018-01-27T11:49:17.041Z,1021.49
2018-01-27T11:50:16.987Z,1021.49
2018-01-27T11:51:17.056Z,1021.47
2018-01-27T11:52:17.025Z,1021.42
2018-01-27T11:53:17.068Z,1021.47
2018-01-27T11:54:16.997Z,1021.47
2018-01-27T11:55:17.024Z,1021.47
2018-01-27T11:56:17.048Z,1021.5
2018-01-27T11:57:17.022Z,1021.49
2018-01-27T11:58:17.041Z,1021.49
2018-01-27T11:59:17.081Z,1021.42
2018-01-27T12:00:16.979Z,1021.43
2018-01-27T12:01:17.039Z,1021.42
2018-01-27T12:02:16.996Z,1021.39
2018-01-27T12:03:17.062Z,1021.42
2018-01-27T12:04:16.993Z,1021.37
2018-01-27T12:05:17.301Z,1021.36
2018-01-27T12:06:16.941Z,1021.41
2018-01-27T12:07:17.246Z,1021.34
2018-01-27T12:08:17.033Z,1021.35
2018-01-27T12:09:16.964Z,1021.33
2018-01-27T12:10:17.123Z,1021.38
2018-01-27T12:11:17.050Z,1021.42
2018-01-27T12:12:17.105Z,1021.47
2018-01-27T12:13:17.018Z,1021.41